createdAt,value
2018-12-14T00:00:33.102Z,12.33
2018-12-14T00:03:00.511Z,12.20
2018-12-14T00:05:27.937Z,14.27
2018-12-14T00:07:55.356Z,13.30
2018-12-14T00:10:22.782Z,13.60
2018-12-14T00:12:50.240Z,12.37
2018-12-14T00:15:18.612Z,13.33
2018-12-14T00:17:46.032Z,14.77
2018-12-14T00:20:14.495Z,14.33
2018-12-14T00:22:42.336Z,13.43
2018-12-14T00:25:09.785Z,12.70
2018-12-14T00:27:37.579Z,13.30
2018-12-14T00:30:05.251Z,15.43
2018-12-14T00:32:32.687Z,12.97
2018-12-14T00:35:00.112Z,15.00
2018-12-14T00:37:28.224Z,14.87
2018-12-14T00:39:55.664Z,13.03
2018-12-14T00:42:26.192Z,21.00
2018-12-14T00:44:53.619Z,12.40
2018-12-14T00:47:21.452Z,14.70
2018-12-14T00:49:48.907Z,16.90
2018-12-14T00:52:17.791Z,15.77
2018-12-14T00:54:49.682Z,16.60
2018-12-14T00:57:17.844Z,14.00
2018-12-14T00:59:47.832Z,16.13
2018-12-14T01:02:21.101Z,13.33
2018-12-14T01:04:48.565Z,12.73
2018-12-14T01:07:15.984Z,15.47
2018-12-14T01:09:43.699Z,14.97
2018-12-14T01:12:11.472Z,12.53
2018-12-14T01:14:38.859Z,16.73
2018-12-14T01:17:07.194Z,12.80
2018-12-14T01:19:34.614Z,14.33
2018-12-14T01:22:02.647Z,15.70
2018-12-14T01:24:30.609Z,11.57
2018-12-14T01:26:58.032Z,12.47
2018-12-14T01:29:25.759Z,14.87
2018-12-14T01:31:53.248Z,12.63
2018-12-14T01:34:20.664Z,14.10
2018-12-14T01:36:48.691Z,15.90
2018-12-14T01:39:16.657Z,15.57
2018-12-14T01:41:44.406Z,14.03
2018-12-14T01:44:18.429Z,15.23
2018-12-14T01:46:46.312Z,14.40
2018-12-14T01:49:13.804Z,15.00
2018-12-14T01:51:41.232Z,13.43
2018-12-14T01:54:08.656Z,13.87
2018-12-14T01:56:37.509Z,11.87
2018-12-14T01:59:04.975Z,13.13
2018-12-14T02:01:32.419Z,15.77
2018-12-14T02:03:59.836Z,14.47
2018-12-14T02:06:27.262Z,13.67
2018-12-14T02:08:54.756Z,11.80
2018-12-14T02:11:24.746Z,15.63
2018-12-14T02:13:52.157Z,16.90
2018-12-14T02:16:19.604Z,12.53
2018-12-14T02:18:47.085Z,14.17
2018-12-14T02:21:14.504Z,12.87
2018-12-14T02:23:48.348Z,13.43
2018-12-14T02:26:15.804Z,13.03
2018-12-14T02:28:43.623Z,12.07
2018-12-14T02:31:11.047Z,13.37
2018-12-14T02:33:38.473Z,13.13
2018-12-14T02:36:05.892Z,13.77
2018-12-14T02:38:33.304Z,13.50
2018-12-14T02:41:00.733Z,13.77
2018-12-14T02:43:28.260Z,16.27
2018-12-14T02:45:56.000Z,10.50
2018-12-14T02:48:24.689Z,10.90
2018-12-14T02:50:52.559Z,12.20
2018-12-14T02:53:19.969Z,11.77
2018-12-14T02:55:47.418Z,15.67
2018-12-14T02:58:16.142Z,13.57
2018-12-14T03:00:43.630Z,13.37
2018-12-14T03:03:11.044Z,14.97
2018-12-14T03:05:38.465Z,13.50
2018-12-14T03:08:05.928Z,14.67
2018-12-14T03:10:33.340Z,10.87
2018-12-14T03:13:01.039Z,14.33
2018-12-14T03:15:28.561Z,11.60
2018-12-14T03:17:56.386Z,12.90
2018-12-14T03:20:23.799Z,12.83
2018-12-14T03:22:51.257Z,11.47
2018-12-14T03:25:19.200Z,15.00
2018-12-14T03:27:47.039Z,11.43
2018-12-14T03:30:14.492Z,9.90
2018-12-14T03:32:41.998Z,12.17
2018-12-14T03:35:09.523Z,12.87
2018-12-14T03:37:36.945Z,14.47
2018-12-14T03:40:05.633Z,11.03
2018-12-14T03:42:34.624Z,13.13
2018-12-14T03:45:02.571Z,10.40
2018-12-14T03:47:30.060Z,13.77
2018-12-14T03:49:57.484Z,12.73
2018-12-14T03:52:24.901Z,12.03
2018-12-14T03:54:52.748Z,10.90
2018-12-14T03:57:21.182Z,11.97
2018-12-14T03:59:48.605Z,11.13
2018-12-14T04:02:16.686Z,11.13
2018-12-14T04:04:44.097Z,11.80
2018-12-14T04:07:11.526Z,14.03
2018-12-14T04:09:39.328Z,11.47
2018-12-14T04:12:07.092Z,11.50
2018-12-14T04:14:34.528Z,9.37
2018-12-14T04:17:02.651Z,9.80
2018-12-14T04:19:30.503Z,11.67
2018-12-14T04:21:58.125Z,12.83
2018-12-14T04:24:25.549Z,11.77
2018-12-14T04:26:53.510Z,11.97
2018-12-14T04:29:20.919Z,9.60
2018-12-14T04:31:48.350Z,11.07
2018-12-14T04:34:15.777Z,10.70
2018-12-14T04:36:43.358Z,10.90
2018-12-14T04:39:11.384Z,12.90
2018-12-14T04:41:38.826Z,9.53
2018-12-14T04:44:06.236Z,12.60
2018-12-14T04:46:34.503Z,12.00
2018-12-14T04:49:04.437Z,11.30
2018-12-14T04:51:31.928Z,11.70
2018-12-14T04:53:59.372Z,11.53
2018-12-14T04:56:26.889Z,12.00
2018-12-14T04:58:54.303Z,11.00
2018-12-14T05:01:22.254Z,10.43
2018-12-14T05:03:50.204Z,12.27
2018-12-14T05:06:18.663Z,10.97
2018-12-14T05:08:46.215Z,10.50
2018-12-14T05:11:13.684Z,13.67
2018-12-14T05:13:41.237Z,12.10
2018-12-14T05:16:08.732Z,12.03
2018-12-14T05:18:36.152Z,13.53
2018-12-14T05:21:03.968Z,11.27
2018-12-14T05:23:31.384Z,12.83
2018-12-14T05:25:59.327Z,13.10
2018-12-14T05:28:26.745Z,12.07
2018-12-14T05:30:54.928Z,11.73
2018-12-14T05:33:22.345Z,14.57
2018-12-14T05:35:49.753Z,12.70
2018-12-14T05:38:17.338Z,13.90
2018-12-14T05:40:44.931Z,13.47
2018-12-14T05:43:12.371Z,14.10
2018-12-14T05:45:39.788Z,13.97
2018-12-14T05:48:07.218Z,12.67
2018-12-14T05:50:35.024Z,14.33
2018-12-14T05:53:02.416Z,12.90
2018-12-14T05:55:29.837Z,12.67
2018-12-14T05:57:57.259Z,14.53
2018-12-14T06:00:24.668Z,15.60
2018-12-14T06:02:53.349Z,12.77
2018-12-14T06:05:22.277Z,13.73
2018-12-14T06:07:49.704Z,13.30
2018-12-14T06:10:17.636Z,14.63
2018-12-14T06:12:45.634Z,15.27
2018-12-14T06:15:13.220Z,11.00
2018-12-14T06:17:40.633Z,15.50
2018-12-14T06:20:08.131Z,15.63
2018-12-14T06:22:35.560Z,13.00
2018-12-14T06:25:04.693Z,16.77
2018-12-14T06:27:32.208Z,16.53
2018-12-14T06:29:59.660Z,14.40
2018-12-14T06:32:27.063Z,14.40
2018-12-14T06:34:54.591Z,20.87
2018-12-14T06:37:22.327Z,17.13
2018-12-14T06:39:50.156Z,16.97
2018-12-14T06:42:17.904Z,16.47
2018-12-14T06:44:45.483Z,16.53
2018-12-14T06:47:12.985Z,13.70
2018-12-14T06:49:40.448Z,21.57
2018-12-14T06:52:07.884Z,14.07
2018-12-14T06:54:35.332Z,17.53
2018-12-14T06:57:02.749Z,22.27
2018-12-14T06:59:30.198Z,17.17
2018-12-14T07:01:57.694Z,19.20
2018-12-14T07:04:25.113Z,13.43
2018-12-14T07:06:52.852Z,18.53
2018-12-14T07:09:20.276Z,17.53
2018-12-14T07:11:47.687Z,19.03
2018-12-14T07:14:15.118Z,18.23
2018-12-14T07:16:42.535Z,18.27
2018-12-14T07:19:09.957Z,19.60
2018-12-14T07:21:37.372Z,16.00
2018-12-14T07:24:04.948Z,15.57
2018-12-14T07:26:33.114Z,16.90
2018-12-14T07:29:02.180Z,17.67
2018-12-14T07:31:29.944Z,16.40
2018-12-14T07:33:57.605Z,14.13
2018-12-14T07:36:25.100Z,17.60
2018-12-14T07:38:53.347Z,14.37
2018-12-14T07:41:20.758Z,16.87
2018-12-14T07:43:48.168Z,13.33
2018-12-14T07:46:16.240Z,15.77
2018-12-14T07:48:43.684Z,14.27
2018-12-14T07:51:11.516Z,14.43
2018-12-14T07:53:38.956Z,12.43
2018-12-14T07:56:06.391Z,15.37
2018-12-14T07:58:33.952Z,13.97
2018-12-14T08:01:01.372Z,12.87
2018-12-14T08:06:03.251Z,15.07
2018-12-14T08:08:30.904Z,17.87
2018-12-14T08:10:59.090Z,17.07
2018-12-14T08:13:27.066Z,17.23
2018-12-14T08:15:55.223Z,14.70
2018-12-14T08:18:22.699Z,17.00
2018-12-14T08:20:50.121Z,17.17
2018-12-14T08:23:18.116Z,14.70
2018-12-14T08:25:45.548Z,12.27
2018-12-14T08:28:12.961Z,14.73
2018-12-14T08:30:41.761Z,15.23
2018-12-14T08:33:09.783Z,20.87
2018-12-14T08:35:37.241Z,16.07
2018-12-14T08:38:04.657Z,18.00
2018-12-14T08:40:32.520Z,18.13
2018-12-14T08:43:00.008Z,18.17
2018-12-14T08:45:27.993Z,27.57
2018-12-14T08:47:57.408Z,16.97
2018-12-14T08:50:24.952Z,13.73
2018-12-14T08:52:52.381Z,15.60
2018-12-14T08:55:20.040Z,19.63
2018-12-14T08:57:47.468Z,21.27
2018-12-14T09:00:15.425Z,18.57
2018-12-14T09:02:42.908Z,13.47
2018-12-14T09:05:10.499Z,15.67
2018-12-14T09:07:38.048Z,17.87
2018-12-14T09:10:06.667Z,17.83
2018-12-14T09:12:34.085Z,15.27
2018-12-14T09:15:01.508Z,34.53
2018-12-14T09:17:28.940Z,15.60
2018-12-14T09:19:56.516Z,16.77
2018-12-14T09:22:23.939Z,16.50
2018-12-14T09:24:51.796Z,14.77
2018-12-14T09:27:19.919Z,13.37
2018-12-14T09:29:47.368Z,15.23
2018-12-14T09:32:14.856Z,17.90
2018-12-14T09:34:42.955Z,14.57
2018-12-14T09:37:10.393Z,15.33
2018-12-14T09:39:37.812Z,15.07
2018-12-14T09:42:05.230Z,13.90
2018-12-14T09:44:32.763Z,14.53
2018-12-14T09:47:00.223Z,13.87
2018-12-14T09:49:27.652Z,14.03
2018-12-14T09:51:55.100Z,15.40
2018-12-14T09:54:22.512Z,16.70
2018-12-14T09:56:49.926Z,18.00
2018-12-14T09:59:17.401Z,13.43
2018-12-14T10:01:45.615Z,14.83
2018-12-14T10:04:13.029Z,14.93
2018-12-14T10:06:40.804Z,14.17
2018-12-14T10:09:12.360Z,17.47
2018-12-14T10:11:39.778Z,13.17
2018-12-14T10:14:07.204Z,12.13
2018-12-14T10:16:34.620Z,15.37
2018-12-14T10:19:02.432Z,14.50
2018-12-14T10:21:30.451Z,14.03
2018-12-14T10:23:58.765Z,15.50
2018-12-14T10:26:26.608Z,16.73
2018-12-14T10:28:54.557Z,17.30
2018-12-14T10:31:22.399Z,14.37
2018-12-14T10:33:49.833Z,13.03
2018-12-14T10:36:19.634Z,13.23
2018-12-14T10:38:47.089Z,14.13
2018-12-14T10:41:14.503Z,14.83
2018-12-14T10:43:42.001Z,15.23
2018-12-14T10:46:09.952Z,14.90
2018-12-14T10:48:37.367Z,14.07
2018-12-14T10:53:39.060Z,13.17
2018-12-14T10:56:06.553Z,17.90
2018-12-14T10:58:34.148Z,13.17
2018-12-14T11:01:07.267Z,14.53
2018-12-14T11:03:34.745Z,16.60
2018-12-14T11:06:02.377Z,18.20
2018-12-14T11:08:30.492Z,13.83
2018-12-14T11:10:58.617Z,12.63
2018-12-14T11:13:26.434Z,17.27
2018-12-14T11:15:53.864Z,13.27
2018-12-14T11:18:21.524Z,13.87
2018-12-14T11:20:48.945Z,15.30
2018-12-14T11:23:16.364Z,13.53
2018-12-14T11:25:44.000Z,19.27
2018-12-14T11:28:11.472Z,15.87
2018-12-14T11:30:38.898Z,14.70
2018-12-14T11:33:07.835Z,13.70
2018-12-14T11:35:35.930Z,15.07
2018-12-14T11:38:03.350Z,13.33
2018-12-14T11:40:30.892Z,12.23
2018-12-14T11:42:58.454Z,14.83
2018-12-14T11:45:25.872Z,13.73
2018-12-14T11:47:53.284Z,13.13
2018-12-14T11:50:20.764Z,12.50
2018-12-14T11:52:48.176Z,12.87
2018-12-14T11:55:15.615Z,11.93
2018-12-14T11:57:43.035Z,11.83
2018-12-14T12:00:10.807Z,15.00
2018-12-14T12:02:43.138Z,15.63
2018-12-14T12:05:07.692Z,12.50
2018-12-14T12:07:35.272Z,12.80
2018-12-14T12:10:04.124Z,14.67
2018-12-14T12:12:31.624Z,13.93
2018-12-14T12:14:59.361Z,16.17
2018-12-14T12:17:26.936Z,24.33
2018-12-14T12:19:54.792Z,18.20
2018-12-14T12:22:22.486Z,12.67
2018-12-14T12:24:49.988Z,14.30
2018-12-14T12:27:18.506Z,14.77
2018-12-14T12:29:46.524Z,13.90
2018-12-14T12:32:13.992Z,15.63
2018-12-14T12:34:41.404Z,16.43
2018-12-14T12:37:08.947Z,13.40
2018-12-14T12:39:36.904Z,17.60
2018-12-14T12:42:04.371Z,14.83
2018-12-14T12:44:33.645Z,13.80
2018-12-14T12:47:01.381Z,14.87
2018-12-14T12:49:29.029Z,12.13
2018-12-14T12:51:57.169Z,12.10
2018-12-14T12:54:24.633Z,13.30
2018-12-14T12:56:52.131Z,12.43
2018-12-14T12:59:19.618Z,12.70
2018-12-14T13:01:47.036Z,14.50
2018-12-14T13:04:15.795Z,13.53
2018-12-14T13:06:43.232Z,15.80
2018-12-14T13:09:10.723Z,16.00
2018-12-14T13:11:38.220Z,11.20
2018-12-14T13:14:06.469Z,13.43
2018-12-14T13:16:34.458Z,14.47
2018-12-14T13:19:01.956Z,12.77
2018-12-14T13:21:32.643Z,13.87
2018-12-14T13:24:01.210Z,16.23
2018-12-14T13:26:28.713Z,13.77
2018-12-14T13:28:56.576Z,12.87
2018-12-14T13:31:24.021Z,14.73
2018-12-14T13:33:51.959Z,11.07
2018-12-14T13:36:19.389Z,14.30
2018-12-14T13:38:46.883Z,13.07
2018-12-14T13:41:16.951Z,12.43
2018-12-14T13:43:44.441Z,15.07
2018-12-14T13:46:12.677Z,13.90
2018-12-14T13:48:40.932Z,13.00
2018-12-14T13:51:08.379Z,15.17
2018-12-14T13:53:36.115Z,14.53
2018-12-14T13:56:03.575Z,15.83
2018-12-14T13:58:31.550Z,14.50
2018-12-14T14:00:58.982Z,14.83
2018-12-14T14:03:29.356Z,14.50
2018-12-14T14:05:56.777Z,15.23
2018-12-14T14:08:24.580Z,13.20
2018-12-14T14:10:52.021Z,16.67
2018-12-14T14:13:19.504Z,18.73
2018-12-14T14:15:50.652Z,14.37
2018-12-14T14:18:17.304Z,15.63
2018-12-14T14:20:44.728Z,19.00
2018-12-14T14:23:12.636Z,20.57
2018-12-14T14:25:40.563Z,56.23
2018-12-14T14:28:07.956Z,21.37
2018-12-14T14:30:35.729Z,15.57
2018-12-14T14:33:03.144Z,13.97
2018-12-14T14:35:30.588Z,15.37
2018-12-14T14:37:58.029Z,16.83
2018-12-14T14:40:25.936Z,15.33
2018-12-14T14:42:53.378Z,14.83
2018-12-14T14:45:21.469Z,15.63
2018-12-14T14:47:48.971Z,15.43
2018-12-14T14:50:17.224Z,16.87
2018-12-14T14:52:45.260Z,13.23
2018-12-14T14:55:12.729Z,18.87
2018-12-14T14:57:41.153Z,12.53
2018-12-14T15:00:08.641Z,14.37
2018-12-14T15:02:36.084Z,14.67
2018-12-14T15:05:04.896Z,13.53
2018-12-14T15:07:32.447Z,15.37
2018-12-14T15:10:00.728Z,14.20
2018-12-14T15:12:28.551Z,14.03
2018-12-14T15:14:56.313Z,14.00
2018-12-14T15:17:23.746Z,15.37
2018-12-14T15:19:51.557Z,17.27
2018-12-14T15:22:19.000Z,16.57
2018-12-14T15:24:46.421Z,13.93
2018-12-14T15:27:14.525Z,13.27
2018-12-14T15:29:41.960Z,14.43
2018-12-14T15:32:09.616Z,15.80
2018-12-14T15:34:37.065Z,16.73
2018-12-14T15:37:04.568Z,14.63
2018-12-14T15:39:32.027Z,15.77
2018-12-14T15:41:59.463Z,15.27
2018-12-14T15:44:28.176Z,11.77
2018-12-14T15:46:55.695Z,15.50
2018-12-14T15:49:23.196Z,13.30
2018-12-14T15:51:51.096Z,12.80
2018-12-14T15:54:18.508Z,16.53
2018-12-14T15:56:47.084Z,14.53
2018-12-14T15:59:14.504Z,13.27
2018-12-14T16:01:43.121Z,15.67
2018-12-14T16:04:10.548Z,16.00
2018-12-14T16:06:38.605Z,13.80
2018-12-14T16:09:06.668Z,16.13
2018-12-14T16:11:34.095Z,13.87
2018-12-14T16:14:01.681Z,13.97
2018-12-14T16:16:29.613Z,16.20
2018-12-14T16:18:57.512Z,15.33
2018-12-14T16:21:25.046Z,12.57
2018-12-14T16:23:52.460Z,16.40
2018-12-14T16:26:19.877Z,14.73
2018-12-14T16:28:47.723Z,17.03
2018-12-14T16:31:15.135Z,15.33
2018-12-14T16:33:42.633Z,15.07
2018-12-14T16:36:10.060Z,16.43
2018-12-14T16:38:37.476Z,16.90
2018-12-14T16:41:05.580Z,15.57
2018-12-14T16:43:33.024Z,16.77
2018-12-14T16:46:00.636Z,17.07
2018-12-14T16:48:28.393Z,16.53
2018-12-14T16:50:55.823Z,14.57
2018-12-14T16:53:23.415Z,17.63
2018-12-14T16:55:50.949Z,19.37
2018-12-14T16:58:18.401Z,17.47
2018-12-14T17:00:45.836Z,13.47
2018-12-14T17:03:13.948Z,12.83
2018-12-14T17:05:41.525Z,17.83
2018-12-14T17:08:09.541Z,15.83
2018-12-14T17:10:39.638Z,19.20
2018-12-14T17:13:07.180Z,25.47
2018-12-14T17:15:35.604Z,19.60
2018-12-14T17:18:03.064Z,19.47
2018-12-14T17:20:31.069Z,19.50
2018-12-14T17:22:58.499Z,18.57
2018-12-14T17:25:26.377Z,16.57
2018-12-14T17:27:54.544Z,14.63
2018-12-14T17:30:22.095Z,16.00
2018-12-14T17:32:49.928Z,17.37
2018-12-14T17:35:20.297Z,14.40
2018-12-14T17:37:47.746Z,16.17
2018-12-14T17:40:15.242Z,15.97
2018-12-14T17:42:42.714Z,15.07
2018-12-14T17:45:14.543Z,15.90
2018-12-14T17:47:41.945Z,15.93
2018-12-14T17:50:09.417Z,15.37
2018-12-14T17:52:36.854Z,16.87
2018-12-14T17:55:04.357Z,14.07
2018-12-14T17:57:31.775Z,17.10
2018-12-14T17:59:59.196Z,14.47
2018-12-14T18:02:26.647Z,14.43
2018-12-14T18:04:54.577Z,19.00
2018-12-14T18:07:22.470Z,16.13
2018-12-14T18:09:49.885Z,17.70
2018-12-14T18:12:17.301Z,17.23
2018-12-14T18:14:44.761Z,17.37
2018-12-14T18:17:12.274Z,15.27
2018-12-14T18:19:40.049Z,20.73
2018-12-14T18:22:07.857Z,15.37
2018-12-14T18:24:35.357Z,20.00
2018-12-14T18:27:03.185Z,17.10
2018-12-14T18:29:31.060Z,15.90
2018-12-14T18:31:58.563Z,14.70
2018-12-14T18:34:26.431Z,16.30
2018-12-14T18:36:53.840Z,16.53
2018-12-14T18:39:21.336Z,13.90
2018-12-14T18:41:48.757Z,15.83
2018-12-14T18:44:16.268Z,16.33
2018-12-14T18:46:43.696Z,14.00
2018-12-14T18:49:11.116Z,14.40
2018-12-14T18:51:38.980Z,17.57
2018-12-14T18:54:06.408Z,15.33
2018-12-14T18:56:33.853Z,15.57
2018-12-14T18:59:01.296Z,14.83
2018-12-14T19:01:28.817Z,19.80
2018-12-14T19:03:56.301Z,16.20
2018-12-14T19:06:23.716Z,16.07
2018-12-14T19:08:51.822Z,16.90
2018-12-14T19:11:19.252Z,17.47
2018-12-14T19:13:46.908Z,18.10
2018-12-14T19:16:14.646Z,16.03
2018-12-14T19:18:42.960Z,19.60
2018-12-14T19:21:10.394Z,19.00
2018-12-14T19:23:37.888Z,18.23
2018-12-14T19:26:05.312Z,22.10
2018-12-14T19:28:33.286Z,25.53
2018-12-14T19:31:00.793Z,20.93
2018-12-14T19:33:28.220Z,28.77
2018-12-14T19:35:55.701Z,34.60
2018-12-14T19:38:23.193Z,25.00
2018-12-14T19:40:50.755Z,20.20
2018-12-14T19:43:18.609Z,27.37
2018-12-14T19:45:46.139Z,38.97
2018-12-14T19:48:13.563Z,47.07
2018-12-14T19:50:42.220Z,24.10
2018-12-14T19:53:10.052Z,23.63
2018-12-14T19:55:37.488Z,40.63
2018-12-14T19:58:05.590Z,22.57
2018-12-14T20:00:33.421Z,17.20
2018-12-14T20:03:00.840Z,26.20
2018-12-14T20:05:31.059Z,17.53
2018-12-14T20:07:58.476Z,16.87
2018-12-14T20:10:26.423Z,20.77
2018-12-14T20:12:53.853Z,17.10
2018-12-14T20:15:21.624Z,19.60
2018-12-14T20:17:50.598Z,20.83
2018-12-14T20:20:18.068Z,18.93
2018-12-14T20:22:46.036Z,22.03
2018-12-14T20:25:13.481Z,20.07
2018-12-14T20:27:40.936Z,24.00
2018-12-14T20:30:08.431Z,20.17
2018-12-14T20:32:35.927Z,20.83
2018-12-14T20:35:04.695Z,20.07
2018-12-14T20:37:32.305Z,29.57
2018-12-14T20:39:59.995Z,28.90
2018-12-14T20:42:27.992Z,24.10
2018-12-14T20:44:55.468Z,28.87
2018-12-14T20:47:22.884Z,30.47
2018-12-14T20:49:50.338Z,33.77
2018-12-14T20:52:17.808Z,30.20
2018-12-14T20:54:45.233Z,31.27
2018-12-14T20:57:12.664Z,40.97
2018-12-14T20:59:40.144Z,42.37
2018-12-14T21:02:08.878Z,43.80
2018-12-14T21:04:37.193Z,33.97
2018-12-14T21:07:04.635Z,42.47
2018-12-14T21:09:32.307Z,35.10
2018-12-14T21:11:59.747Z,26.87
2018-12-14T21:14:28.064Z,21.00
2018-12-14T21:16:56.020Z,24.17
2018-12-14T21:19:23.467Z,32.43
2018-12-14T21:21:51.012Z,28.40
2018-12-14T21:24:18.844Z,30.97
2018-12-14T21:26:46.285Z,29.53
2018-12-14T21:29:16.098Z,27.67
2018-12-14T21:31:44.002Z,22.40
2018-12-14T21:34:11.934Z,25.87
2018-12-14T21:36:39.365Z,24.20
2018-12-14T21:39:06.915Z,20.73
2018-12-14T21:41:34.852Z,17.07
2018-12-14T21:44:02.272Z,18.87
2018-12-14T21:46:32.758Z,19.93
2018-12-14T21:48:59.163Z,18.33
2018-12-14T21:51:27.266Z,16.27
2018-12-14T21:53:54.692Z,18.40
2018-12-14T21:56:22.111Z,16.07
2018-12-14T21:58:50.188Z,16.80
2018-12-14T22:01:18.008Z,18.50
2018-12-14T22:03:45.484Z,17.37
2018-12-14T22:06:12.918Z,14.93
2018-12-14T22:08:40.405Z,15.57
2018-12-14T22:11:08.245Z,16.13
2018-12-14T22:13:35.989Z,17.30
2018-12-14T22:16:03.670Z,16.67
2018-12-14T22:18:31.173Z,20.27
2018-12-14T22:20:58.638Z,18.03
2018-12-14T22:23:26.152Z,15.17
2018-12-14T22:25:53.569Z,17.27
2018-12-14T22:28:21.028Z,16.20
2018-12-14T22:30:49.071Z,14.73
2018-12-14T22:33:16.487Z,16.57
2018-12-14T22:35:43.993Z,17.10
2018-12-14T22:38:12.140Z,16.63
2018-12-14T22:40:39.672Z,17.23
2018-12-14T22:43:07.378Z,18.27
2018-12-14T22:45:34.807Z,19.27
2018-12-14T22:48:02.924Z,17.10
2018-12-14T22:50:30.347Z,15.67
2018-12-14T22:52:57.824Z,18.93
2018-12-14T22:55:25.961Z,15.33
2018-12-14T22:57:53.513Z,14.97
2018-12-14T23:00:21.717Z,16.17
2018-12-14T23:02:49.150Z,19.53
2018-12-14T23:05:17.340Z,16.77
2018-12-14T23:07:44.769Z,17.27
2018-12-14T23:10:12.236Z,18.00
2018-12-14T23:12:39.736Z,15.60
2018-12-14T23:15:07.604Z,14.70
2018-12-14T23:17:35.026Z,18.17
2018-12-14T23:20:03.002Z,16.03
2018-12-14T23:22:31.496Z,18.47
2018-12-14T23:24:58.888Z,18.67
2018-12-14T23:27:26.338Z,17.43
2018-12-14T23:29:53.799Z,15.97
2018-12-14T23:32:21.230Z,18.10
2018-12-14T23:34:49.339Z,21.60
2018-12-14T23:37:16.880Z,19.27
2018-12-14T23:39:44.550Z,19.17
2018-12-14T23:42:13.732Z,18.53
2018-12-14T23:44:41.214Z,16.83
2018-12-14T23:47:10.945Z,17.60
2018-12-14T23:49:38.345Z,15.27
2018-12-14T23:52:05.769Z,17.87
2018-12-14T23:54:34.172Z,18.03
2018-12-14T23:57:01.630Z,16.07
2018-12-14T23:59:30.152Z,16.33
